Carapicuiba, Brazil
Current Conditions -  °F | °C
As of 4:00 PM on Thursday 30 Oct 2014 (Local Time) from SBMT Reporting Station
Broken Clouds Broken Clouds  
Wind Chill: 90°   Ceiling: 4000
Heat Index: 90°   Visibility: 6mi
Dew Point: 55°   Wind: 6mph
Humidity: 31%   Direction: 270°W
Pressure: 29.83"   Gusts: NA
Location:  23.52°S, 46.84°W
Report Text: SBMT 301800Z 27005KT 9999 BKN040 32/13 Q1010
Loading
Personal Weather Stations






























Interactive Weather Map
Tropical Storm Tracking
New forecast layout! Learn more

10-Day Weather Forecast

Advertisements
Track Severe Weather on mobile